Time;durP1;ratioP1;P1;durP2;ratioP2;P2;SDS_P1;SDS_P2;PMS_P1;PMS_P2;Temp;Humidity;BMP_temperature;BMP_pressure;BME280_temperature;BME280_humidity;BME280_pressure;Samples;Min_cycle;Max_cycle;Signal;HPM_P1;HPM_P2
2021/10/06 00:01:35;;;;;;;4.00;1.65;;;21.30;56.30;;;;;;5135601;27;20019;-59
2021/10/06 00:04:01;;;;;;;4.57;2.17;;;21.30;56.30;;;;;;5135763;27;20023;-59
2021/10/06 00:06:26;;;;;;;3.88;1.40;;;21.30;56.30;;;;;;5135536;27;20016;-59
2021/10/06 00:08:52;;;;;;;4.35;1.90;;;21.40;56.30;;;;;;5135427;27;20152;-60
2021/10/06 00:11:18;;;;;;;4.53;1.92;;;21.30;56.30;;;;;;5135467;27;20023;-59
2021/10/06 00:13:43;;;;;;;4.15;1.80;;;21.30;56.30;;;;;;5135490;27;20538;-59
2021/10/06 00:16:12;;;;;;;4.47;1.70;;;21.30;56.30;;;;;;5135597;27;20327;-60
2021/10/06 00:18:38;;;;;;;3.65;1.55;;;21.30;56.30;;;;;;5135242;27;20038;-60
2021/10/06 00:21:04;;;;;;;4.70;1.92;;;21.30;56.30;;;;;;5135155;27;20031;-60
2021/10/06 00:23:32;;;;;;;4.45;1.95;;;21.30;56.30;;;;;;5135292;27;20106;-60
2021/10/06 00:25:58;;;;;;;4.60;2.05;;;21.30;56.30;;;;;;5135305;27;20038;-60
2021/10/06 00:28:24;;;;;;;3.75;1.75;;;21.30;56.30;;;;;;5135241;27;20102;-61
2021/10/06 00:30:49;;;;;;;5.47;1.98;;;21.30;56.30;;;;;;5135353;27;20106;-58
2021/10/06 00:33:15;;;;;;;4.13;2.00;;;21.30;56.30;;;;;;5134978;27;20057;-60
2021/10/06 00:35:40;;;;;;;3.58;1.52;;;21.30;56.30;;;;;;5134915;27;20027;-59
2021/10/06 00:38:06;;;;;;;5.18;2.15;;;21.30;56.30;;;;;;5134899;27;20026;-60
2021/10/06 00:40:32;;;;;;;4.55;1.90;;;21.30;56.30;;;;;;5134706;27;20054;-59
2021/10/06 00:42:57;;;;;;;4.70;2.13;;;21.30;56.30;;;;;;5135114;27;20417;-59
2021/10/06 00:45:23;;;;;;;4.82;1.75;;;21.30;56.20;;;;;;5134771;27;20027;-58
2021/10/06 00:47:48;;;;;;;6.10;2.28;;;21.30;56.30;;;;;;5134681;27;20027;-58
2021/10/06 00:50:14;;;;;;;4.78;2.40;;;21.20;56.30;;;;;;5134839;27;20079;-59
2021/10/06 00:52:40;;;;;;;5.13;2.35;;;21.30;56.30;;;;;;5134599;27;20102;-58
2021/10/06 00:55:06;;;;;;;4.00;2.03;;;21.30;56.30;;;;;;5116226;27;20356;-58
2021/10/06 00:57:31;;;;;;;5.25;2.50;;;21.30;56.30;;;;;;5134523;27;20194;-59
2021/10/06 00:59:57;;;;;;;4.35;1.85;;;21.20;56.20;;;;;;5134397;27;20024;-59
2021/10/06 01:02:23;;;;;;;6.22;2.30;;;21.20;56.30;;;;;;5134364;27;20012;-59
2021/10/06 01:04:48;;;;;;;5.35;2.10;;;21.20;56.20;;;;;;5134596;27;20106;-59
2021/10/06 01:07:14;;;;;;;4.03;2.00;;;21.30;56.30;;;;;;5134250;27;20489;-60
2021/10/06 01:09:40;;;;;;;5.90;2.58;;;21.20;56.30;;;;;;5134339;27;20035;-59
2021/10/06 01:12:06;;;;;;;4.30;2.15;;;21.20;56.20;;;;;;5133871;27;20114;-58
2021/10/06 01:14:32;;;;;;;4.35;2.10;;;21.20;56.20;;;;;;5134474;27;20055;-58
2021/10/06 01:16:58;;;;;;;5.20;2.45;;;21.20;56.20;;;;;;5134386;27;20423;-59
2021/10/06 01:19:28;;;;;;;5.75;2.17;;;21.20;56.30;;;;;;5134158;27;20110;-59
2021/10/06 01:21:55;;;;;;;5.07;2.35;;;21.20;56.20;;;;;;5134279;27;20028;-59
2021/10/06 01:24:24;;;;;;;4.68;2.15;;;21.20;56.20;;;;;;5134100;27;20031;-60
2021/10/06 01:26:50;;;;;;;5.85;2.45;;;21.20;56.20;;;;;;5134320;27;20016;-59
2021/10/06 01:29:16;;;;;;;6.35;2.55;;;21.20;56.20;;;;;;5133919;27;20030;-58
2021/10/06 01:31:45;;;;;;;6.18;2.88;;;21.20;56.20;;;;;;5134004;27;20030;-58
2021/10/06 01:34:12;;;;;;;5.80;2.53;;;21.20;56.20;;;;;;5134108;27;20041;-58
2021/10/06 01:36:38;;;;;;;5.97;2.72;;;21.20;56.30;;;;;;5134313;27;20035;-59
2021/10/06 01:39:06;;;;;;;4.93;2.10;;;21.20;56.20;;;;;;5133838;27;20126;-59
2021/10/06 01:41:33;;;;;;;5.40;2.60;;;21.20;56.20;;;;;;5134198;27;20027;-59
2021/10/06 01:44:00;;;;;;;5.45;3.08;;;21.20;56.20;;;;;;5133893;28;20023;-58
2021/10/06 01:46:25;;;;;;;4.50;2.45;;;21.20;56.30;;;;;;5134118;28;20091;-59
2021/10/06 01:48:51;;;;;;;5.57;2.60;;;21.20;56.20;;;;;;5133924;28;20451;-60
2021/10/06 01:51:16;;;;;;;5.53;2.58;;;21.20;56.20;;;;;;5133886;28;20378;-58
2021/10/06 01:53:42;;;;;;;4.95;2.53;;;21.10;56.20;;;;;;5133862;28;20055;-59
2021/10/06 01:56:08;;;;;;;5.97;2.70;;;21.20;56.20;;;;;;5133845;28;20015;-59
2021/10/06 01:58:34;;;;;;;5.10;2.47;;;21.20;56.20;;;;;;5134053;28;20038;-58
2021/10/06 02:01:00;;;;;;;4.70;2.53;;;21.10;56.20;;;;;;5133738;28;20019;-58
2021/10/06 02:03:26;;;;;;;6.40;2.47;;;21.10;56.20;;;;;;5133981;28;20028;-59
2021/10/06 02:05:51;;;;;;;8.63;2.75;;;21.20;56.30;;;;;;5133698;28;20015;-59
2021/10/06 02:08:17;;;;;;;6.00;2.55;;;21.10;56.20;;;;;;5133742;28;20034;-58
2021/10/06 02:10:44;;;;;;;5.65;2.33;;;21.10;56.30;;;;;;5133570;28;20039;-59
2021/10/06 02:13:10;;;;;;;4.60;2.15;;;21.10;56.30;;;;;;5115161;28;20028;-59
2021/10/06 02:15:36;;;;;;;6.57;3.03;;;21.10;56.20;;;;;;5133887;28;20155;-60
2021/10/06 02:18:01;;;;;;;5.78;3.15;;;21.10;56.30;;;;;;5133765;28;20414;-59
2021/10/06 02:20:28;;;;;;;6.22;2.95;;;21.10;56.20;;;;;;5133799;28;20030;-59
2021/10/06 02:22:54;;;;;;;5.22;2.65;;;21.10;56.20;;;;;;5133636;27;20037;-59
2021/10/06 02:25:19;;;;;;;5.13;2.63;;;21.10;56.20;;;;;;5137027;27;20019;-58
2021/10/06 02:27:45;;;;;;;5.57;2.55;;;21.10;56.30;;;;;;5137739;27;20023;-59
2021/10/06 02:30:12;;;;;;;5.88;2.72;;;21.10;56.20;;;;;;5137596;27;20035;-59
2021/10/06 02:32:37;;;;;;;6.70;2.80;;;21.10;56.30;;;;;;5137540;27;20062;-59
2021/10/06 02:35:05;;;;;;;7.50;2.90;;;21.10;56.20;;;;;;5137419;27;20055;-58
2021/10/06 02:37:30;;;;;;;6.32;3.08;;;21.10;56.20;;;;;;5137345;27;20023;-60
2021/10/06 02:39:56;;;;;;;4.78;2.35;;;21.10;56.20;;;;;;5137109;27;20555;-58
2021/10/06 02:42:21;;;;;;;6.65;2.47;;;21.00;56.20;;;;;;5137208;27;20015;-59
2021/10/06 02:44:47;;;;;;;5.47;2.55;;;21.10;56.10;;;;;;5137492;27;20083;-57
2021/10/06 02:47:13;;;;;;;5.28;2.58;;;21.00;56.20;;;;;;5137158;27;20626;-60
2021/10/06 02:49:39;;;;;;;6.90;2.85;;;21.10;56.20;;;;;;5137075;27;20043;-60
2021/10/06 02:52:04;;;;;;;6.80;2.47;;;21.10;56.20;;;;;;5137098;27;20019;-59
2021/10/06 02:54:30;;;;;;;5.18;2.67;;;21.10;56.10;;;;;;5137009;27;20023;-59
2021/10/06 02:57:01;;;;;;;5.50;2.47;;;21.10;56.10;;;;;;5136864;27;20180;-59
2021/10/06 02:59:33;;;;;;;5.00;2.60;;;21.10;56.20;;;;;;5137188;27;20023;-59
2021/10/06 03:01:59;;;;;;;5.70;2.83;;;21.10;56.20;;;;;;5137198;27;20106;-60
2021/10/06 03:04:24;;;;;;;6.32;3.33;;;21.10;56.20;;;;;;5137116;27;20560;-59
2021/10/06 03:06:50;;;;;;;7.55;2.85;;;21.10;56.20;;;;;;5136725;27;20101;-59
2021/10/06 03:09:16;;;;;;;5.55;2.60;;;21.00;56.10;;;;;;5136648;27;20515;-59
2021/10/06 03:11:42;;;;;;;5.85;2.33;;;21.00;56.20;;;;;;5136664;27;20090;-58
2021/10/06 03:14:08;;;;;;;5.18;2.33;;;21.00;56.20;;;;;;5136687;27;20031;-59
2021/10/06 03:16:33;;;;;;;5.72;2.72;;;21.10;56.10;;;;;;5118107;27;20031;-59
2021/10/06 03:18:59;;;;;;;5.47;2.65;;;21.00;56.10;;;;;;5136838;27;20115;-58
2021/10/06 03:21:24;;;;;;;6.30;2.90;;;21.10;56.10;;;;;;5136579;27;20031;-59
2021/10/06 03:23:50;;;;;;;5.35;2.63;;;21.00;56.20;;;;;;5136439;27;20374;-60
2021/10/06 03:26:15;;;;;;;6.72;2.97;;;21.00;56.20;;;;;;5136298;27;20478;-59
2021/10/06 03:28:41;;;;;;;5.75;2.28;;;21.00;56.10;;;;;;5136285;27;20027;-59
2021/10/06 03:31:06;;;;;;;4.43;2.33;;;21.00;56.20;;;;;;5136373;27;20038;-59
2021/10/06 03:33:32;;;;;;;4.72;2.40;;;21.00;56.10;;;;;;5136518;27;20020;-59
2021/10/06 03:35:58;;;;;;;5.50;2.63;;;21.10;56.10;;;;;;5117786;27;20029;-58
2021/10/06 03:38:23;;;;;;;5.65;2.35;;;21.00;56.10;;;;;;5135848;27;20020;-59
2021/10/06 03:40:49;;;;;;;7.82;2.65;;;21.00;56.10;;;;;;5136030;27;20031;-59
2021/10/06 03:43:14;;;;;;;5.95;3.05;;;21.00;56.10;;;;;;5136038;27;20023;-58
2021/10/06 03:45:40;;;;;;;5.38;2.50;;;21.00;56.10;;;;;;5136287;27;20065;-59
2021/10/06 03:48:06;;;;;;;5.60;2.90;;;21.00;56.10;;;;;;5135993;27;20023;-63
2021/10/06 03:50:31;;;;;;;7.72;3.00;;;21.00;56.10;;;;;;5135812;27;20049;-59
2021/10/06 03:52:57;;;;;;;5.60;2.50;;;21.00;56.00;;;;;;5135860;27;20035;-59
2021/10/06 03:55:23;;;;;;;5.38;2.33;;;21.00;56.10;;;;;;5135832;27;20027;-59
2021/10/06 03:57:48;;;;;;;4.47;2.22;;;21.00;56.10;;;;;;5117323;27;20482;-59
2021/10/06 04:00:14;;;;;;;4.32;2.30;;;21.00;56.00;;;;;;5135983;27;20027;-59
2021/10/06 04:02:40;;;;;;;5.03;2.38;;;21.00;56.10;;;;;;5135916;27;20069;-59
2021/10/06 04:05:08;;;;;;;5.40;2.38;;;21.00;56.10;;;;;;5135936;27;20102;-59
2021/10/06 04:07:34;;;;;;;5.38;2.53;;;21.00;56.00;;;;;;5135397;27;20034;-58
2021/10/06 04:10:00;;;;;;;4.90;2.30;;;21.00;56.00;;;;;;5135502;27;20409;-59
2021/10/06 04:12:25;;;;;;;5.47;2.67;;;21.00;56.00;;;;;;5135662;27;20023;-59
2021/10/06 04:14:51;;;;;;;5.55;2.55;;;21.00;55.90;;;;;;5135621;27;20496;-59
2021/10/06 04:17:16;;;;;;;4.93;2.00;;;21.00;56.00;;;;;;5135443;27;20019;-59
2021/10/06 04:19:42;;;;;;;5.88;2.10;;;21.00;55.90;;;;;;5135437;27;20377;-60
2021/10/06 04:22:08;;;;;;;5.20;2.55;;;21.00;56.00;;;;;;5135334;27;20427;-59
2021/10/06 04:24:33;;;;;;;4.85;2.10;;;21.10;55.90;;;;;;5135272;27;20041;-59
2021/10/06 04:26:59;;;;;;;5.30;2.53;;;21.10;55.90;;;;;;5135177;27;20102;-58
2021/10/06 04:29:25;;;;;;;6.22;2.47;;;21.10;55.90;;;;;;5116934;27;20109;-59
2021/10/06 04:31:50;;;;;;;4.13;2.13;;;21.10;55.90;;;;;;5135135;27;20493;-60
2021/10/06 04:34:16;;;;;;;5.50;2.50;;;21.10;55.80;;;;;;5135097;27;20027;-59
2021/10/06 04:36:42;;;;;;;5.20;2.38;;;21.10;55.80;;;;;;5135006;27;20369;-59
2021/10/06 04:39:08;;;;;;;5.93;2.47;;;21.10;55.80;;;;;;5134991;27;20493;-59
2021/10/06 04:41:34;;;;;;;5.68;2.38;;;21.20;55.80;;;;;;5135220;27;20126;-59
2021/10/06 04:44:01;;;;;;;6.35;2.35;;;21.10;55.80;;;;;;5134835;27;20054;-58
2021/10/06 04:46:27;;;;;;;4.72;2.22;;;21.20;55.70;;;;;;5134132;27;20398;-59
2021/10/06 04:48:53;;;;;;;3.95;1.80;;;21.10;55.70;;;;;;5134675;27;20050;-59
2021/10/06 04:51:18;;;;;;;5.93;2.30;;;21.20;55.80;;;;;;5134975;27;20470;-59
2021/10/06 04:53:44;;;;;;;5.40;2.08;;;21.20;55.70;;;;;;5134640;27;20042;-59
2021/10/06 04:56:10;;;;;;;7.32;2.47;;;21.20;55.70;;;;;;5134966;27;20023;-59
2021/10/06 04:58:35;;;;;;;4.60;1.88;;;21.20;55.70;;;;;;5134541;27;20027;-59
2021/10/06 05:01:01;;;;;;;4.68;2.05;;;21.20;55.70;;;;;;5134572;27;20027;-60
2021/10/06 05:03:26;;;;;;;5.03;2.22;;;21.20;55.70;;;;;;5134498;27;20015;-59
2021/10/06 05:05:52;;;;;;;4.68;2.35;;;21.20;55.70;;;;;;5134326;27;20027;-59
2021/10/06 05:08:17;;;;;;;5.22;2.10;;;21.20;55.70;;;;;;5134349;27;20026;-58
2021/10/06 05:10:43;;;;;;;4.32;2.00;;;21.20;55.70;;;;;;5134456;27;20456;-59
2021/10/06 05:13:09;;;;;;;4.15;1.80;;;21.20;55.70;;;;;;5134562;27;20015;-59
2021/10/06 05:15:34;;;;;;;7.28;3.45;;;21.20;55.70;;;;;;5134489;27;20382;-59
2021/10/06 05:18:00;;;;;;;5.22;2.25;;;21.20;55.70;;;;;;5134289;27;20019;-58
2021/10/06 05:20:25;;;;;;;6.43;2.40;;;21.30;55.70;;;;;;5134301;27;20023;-59
2021/10/06 05:22:52;;;;;;;6.20;2.20;;;21.20;55.70;;;;;;5134256;27;20099;-58
2021/10/06 05:25:18;;;;;;;4.68;1.98;;;21.30;55.60;;;;;;5134355;27;20028;-58
2021/10/06 05:27:43;;;;;;;5.60;2.08;;;21.20;55.60;;;;;;5115688;27;20436;-59
2021/10/06 05:30:10;;;;;;;5.13;2.20;;;21.30;55.60;;;;;;5134050;27;20035;-58
2021/10/06 05:32:36;;;;;;;4.85;1.98;;;21.30;55.60;;;;;;5134047;27;20023;-58
2021/10/06 05:35:02;;;;;;;4.53;2.17;;;21.30;55.50;;;;;;5134191;27;20111;-58
2021/10/06 05:37:28;;;;;;;4.53;2.20;;;21.30;55.60;;;;;;5133990;27;20026;-59
2021/10/06 05:39:53;;;;;;;3.85;1.70;;;21.30;55.60;;;;;;5133880;27;20047;-58
2021/10/06 05:42:19;;;;;;;4.20;1.95;;;21.30;55.60;;;;;;5133898;27;20494;-60
2021/10/06 05:44:45;;;;;;;4.50;2.05;;;21.30;55.50;;;;;;5134013;27;20118;-58
2021/10/06 05:47:10;;;;;;;4.53;1.95;;;21.30;55.50;;;;;;5134171;28;20579;-59
2021/10/06 05:49:36;;;;;;;5.93;1.95;;;21.30;55.60;;;;;;5133707;28;20035;-62
2021/10/06 05:52:01;;;;;;;4.07;1.85;;;21.30;55.50;;;;;;5134012;28;20027;-59
2021/10/06 05:54:27;;;;;;;5.07;1.95;;;21.30;55.60;;;;;;5133729;28;20025;-59
2021/10/06 05:56:53;;;;;;;4.28;1.90;;;21.30;55.50;;;;;;5133858;28;20034;-59
2021/10/06 05:59:18;;;;;;;4.22;2.00;;;21.40;55.60;;;;;;5137579;27;20030;-60
2021/10/06 06:01:44;;;;;;;4.47;1.67;;;21.30;55.50;;;;;;5138075;27;20031;-59
2021/10/06 06:04:09;;;;;;;3.83;1.90;;;21.30;55.50;;;;;;5137996;27;20034;-59
2021/10/06 06:06:35;;;;;;;4.95;2.00;;;21.30;55.60;;;;;;5138018;27;20077;-61
2021/10/06 06:09:00;;;;;;;4.75;1.95;;;21.30;55.60;;;;;;5138031;27;20031;-59
2021/10/06 06:11:26;;;;;;;4.45;2.10;;;21.30;55.50;;;;;;5137669;27;20034;-60
2021/10/06 06:13:53;;;;;;;4.32;1.73;;;21.30;55.50;;;;;;5137888;27;20024;-59
2021/10/06 06:16:18;;;;;;;3.28;1.60;;;21.40;55.50;;;;;;5119451;27;20024;-60
2021/10/06 06:18:44;;;;;;;3.95;1.70;;;21.40;55.50;;;;;;5137806;27;20034;-59
2021/10/06 06:21:10;;;;;;;4.03;1.58;;;21.40;55.40;;;;;;5137518;27;20381;-59
2021/10/06 06:23:36;;;;;;;4.35;1.95;;;21.40;55.40;;;;;;5129373;27;20035;-59
2021/10/06 06:26:02;;;;;;;3.88;1.80;;;21.40;55.30;;;;;;5113464;27;20459;-59
2021/10/06 06:28:28;;;;;;;3.75;1.75;;;21.40;55.40;;;;;;5126755;27;20106;-59
2021/10/06 06:30:54;;;;;;;3.22;1.55;;;21.40;55.30;;;;;;5125361;27;20126;-59
2021/10/06 06:33:19;;;;;;;3.45;1.83;;;21.40;55.20;;;;;;5120264;27;20096;-59
2021/10/06 06:35:45;;;;;;;3.65;1.75;;;21.40;55.20;;;;;;5116099;27;20062;-58
2021/10/06 06:38:11;;;;;;;4.10;1.73;;;21.40;55.40;;;;;;5124890;27;20034;-57
2021/10/06 06:40:40;;;;;;;3.85;1.52;;;21.40;55.40;;;;;;5118340;27;20058;-57
2021/10/06 06:43:07;;;;;;;4.13;1.65;;;21.40;55.30;;;;;;5104837;27;20027;-56
2021/10/06 06:45:33;;;;;;;4.72;1.77;;;21.50;55.30;;;;;;5123242;27;20120;-59
2021/10/06 06:47:58;;;;;;;4.90;1.80;;;21.50;55.20;;;;;;5123674;27;20117;-58
2021/10/06 06:50:24;;;;;;;3.17;1.42;;;21.50;55.30;;;;;;5105480;28;20042;-59
2021/10/06 06:52:49;;;;;;;3.88;1.55;;;21.50;55.30;;;;;;5126571;27;20108;-59
2021/10/06 06:55:15;;;;;;;4.28;1.55;;;21.50;55.20;;;;;;5119448;27;20027;-60
2021/10/06 06:57:40;;;;;;;4.18;1.80;;;21.50;55.30;;;;;;5101086;27;20027;-59
2021/10/06 07:00:06;;;;;;;3.30;1.65;;;21.50;55.30;;;;;;5127047;27;20027;-59
2021/10/06 07:02:32;;;;;;;3.88;1.50;;;21.50;55.40;;;;;;5130765;27;20125;-59
2021/10/06 07:04:57;;;;;;;3.88;1.75;;;21.50;55.40;;;;;;5133270;27;20046;-59
2021/10/06 07:07:23;;;;;;;5.50;2.00;;;21.50;55.40;;;;;;5126494;27;20016;-60
2021/10/06 07:09:49;;;;;;;3.90;1.50;;;21.50;55.40;;;;;;5114540;27;20031;-58
2021/10/06 07:12:20;;;;;;;4.53;1.60;;;21.50;55.30;;;;;;5120100;27;20035;-59
2021/10/06 07:14:47;;;;;;;6.45;1.92;;;21.50;55.40;;;;;;5102529;27;20059;-60
2021/10/06 07:17:13;;;;;;;4.65;1.90;;;21.50;55.50;;;;;;5120896;27;20031;-59
2021/10/06 07:19:40;;;;;;;3.35;1.50;;;21.50;55.50;;;;;;5119007;27;20032;-59
2021/10/06 07:22:06;;;;;;;3.10;1.50;;;21.50;55.40;;;;;;5124422;27;20023;-59
2021/10/06 07:24:32;;;;;;;3.60;1.50;;;21.50;55.40;;;;;;5119261;27;20526;-59
2021/10/06 07:26:58;;;;;;;3.60;1.50;;;21.50;55.50;;;;;;5129750;27;20031;-59
2021/10/06 07:29:24;;;;;;;5.43;1.83;;;21.50;55.40;;;;;;5122277;27;20595;-57
2021/10/06 07:31:49;;;;;;;4.38;1.50;;;21.60;55.40;;;;;;5118383;27;20072;-54
2021/10/06 07:34:15;;;;;;;3.53;1.42;;;21.50;55.50;;;;;;5102176;27;20039;-50
2021/10/06 07:36:40;;;;;;;3.50;1.50;;;21.50;55.60;;;;;;5117180;27;20064;-53
2021/10/06 07:39:06;;;;;;;4.78;2.10;;;21.50;55.60;;;;;;5122087;27;20035;-51
2021/10/06 07:41:32;;;;;;;3.75;1.63;;;21.50;55.50;;;;;;5111697;27;20023;-49
2021/10/06 07:43:58;;;;;;;4.55;1.67;;;21.60;55.50;;;;;;5117390;27;20027;-54
2021/10/06 07:46:24;;;;;;;3.22;1.55;;;21.50;55.60;;;;;;5111341;27;20069;-58
2021/10/06 07:48:50;;;;;;;3.03;1.40;;;21.50;55.70;;;;;;5129217;27;20047;-55
2021/10/06 07:51:16;;;;;;;4.88;1.70;;;21.60;55.80;;;;;;5128517;27;20051;-53
2021/10/06 07:53:42;;;;;;;3.45;1.45;;;21.60;55.70;;;;;;5115359;27;20039;-52
2021/10/06 07:56:07;;;;;;;3.33;1.50;;;21.60;55.60;;;;;;5114678;27;20023;-54
2021/10/06 07:58:33;;;;;;;3.65;1.23;;;21.60;55.60;;;;;;5120731;27;20063;-59
2021/10/06 08:00:58;;;;;;;3.15;1.30;;;21.60;55.70;;;;;;5099720;27;20035;-51
2021/10/06 08:03:24;;;;;;;4.78;1.58;;;21.60;55.70;;;;;;5109261;27;20097;-54
2021/10/06 08:05:50;;;;;;;4.00;1.23;;;21.60;55.50;;;;;;5111107;27;20027;-58
2021/10/06 08:08:15;;;;;;;3.45;1.20;;;21.70;55.50;;;;;;5125083;27;20034;-58
2021/10/06 08:10:41;;;;;;;4.88;1.55;;;21.70;55.60;;;;;;5128499;27;20754;-58
2021/10/06 08:13:07;;;;;;;3.97;1.25;;;21.70;55.60;;;;;;5122382;27;20034;-55
2021/10/06 08:15:34;;;;;;;2.53;1.25;;;21.70;55.60;;;;;;5090409;27;20526;-55
2021/10/06 08:18:00;;;;;;;4.00;1.45;;;21.70;55.60;;;;;;5123225;27;20049;-54
2021/10/06 08:20:27;;;;;;;3.40;1.42;;;21.70;55.60;;;;;;5120223;27;20539;-57
2021/10/06 08:22:52;;;;;;;3.25;1.27;;;21.70;55.60;;;;;;5122269;27;20031;-58
2021/10/06 08:25:18;;;;;;;3.70;1.33;;;21.70;55.60;;;;;;5103492;27;20020;-57
2021/10/06 08:27:43;;;;;;;3.13;1.48;;;21.70;55.70;;;;;;5105477;27;20166;-59
2021/10/06 08:30:09;;;;;;;3.35;1.52;;;21.70;55.70;;;;;;5121116;27;20031;-57
2021/10/06 08:32:35;;;;;;;3.35;1.40;;;21.70;55.70;;;;;;5122798;27;20479;-57
2021/10/06 08:35:02;;;;;;;3.13;1.40;;;21.70;55.70;;;;;;5104659;27;20110;-54
2021/10/06 08:37:27;;;;;;;3.30;1.33;;;21.70;55.70;;;;;;5118307;27;20585;-53
2021/10/06 08:39:54;;;;;;;4.25;1.45;;;21.70;55.70;;;;;;5124117;27;20116;-63
2021/10/06 08:42:20;;;;;;;3.45;1.35;;;21.70;55.90;;;;;;5122761;27;20431;-59
2021/10/06 08:44:50;;;;;;;4.22;1.52;;;21.70;55.80;;;;;;5105961;27;20038;-55
2021/10/06 08:47:16;;;;;;;3.97;1.55;;;21.70;55.80;;;;;;5114028;27;20528;-55
2021/10/06 08:49:43;;;;;;;7.53;2.13;;;21.70;55.80;;;;;;5116794;27;20040;-55
2021/10/06 08:52:09;;;;;;;4.07;1.20;;;21.70;55.70;;;;;;5121250;27;20027;-55
2021/10/06 08:54:34;;;;;;;4.07;1.70;;;21.70;55.70;;;;;;5100049;27;20031;-56
2021/10/06 08:57:00;;;;;;;2.75;1.33;;;21.70;55.80;;;;;;5115599;27;20471;-54
2021/10/06 08:59:25;;;;;;;2.88;1.20;;;21.80;55.70;;;;;;5125263;27;20035;-53
2021/10/06 09:01:51;;;;;;;5.93;1.38;;;21.70;55.80;;;;;;5102241;28;20080;-54
2021/10/06 09:04:29;;;;;;;4.70;1.75;;;21.70;55.70;;;;;;5118087;27;20068;-54
2021/10/06 09:07:01;;;;;;;5.13;1.48;;;21.70;55.80;;;;;;5104663;27;20076;-56
2021/10/06 09:09:30;;;;;;;5.25;1.40;;;21.70;55.80;;;;;;5113612;27;20587;-53
2021/10/06 09:11:56;;;;;;;3.67;1.60;;;21.80;55.80;;;;;;5117162;27;20169;-56
2021/10/06 09:14:22;;;;;;;2.95;1.38;;;21.80;55.80;;;;;;5118991;27;20530;-57
2021/10/06 09:17:05;;;;;;;3.38;1.48;;;21.80;55.90;;;;;;5120194;27;20193;-53
2021/10/06 09:19:46;;;;;;;5.00;1.55;;;21.80;55.80;;;;;;5112300;28;20024;-55
2021/10/06 09:22:14;;;;;;;3.45;1.30;;;21.80;55.80;;;;;;5112065;28;20446;-54
2021/10/06 09:24:51;;;;;;;4.47;1.50;;;21.80;55.80;;;;;;5121404;27;20070;-55
2021/10/06 09:27:29;;;;;;;5.43;1.58;;;21.80;55.80;;;;;;5121620;27;20069;-53
2021/10/06 09:29:57;;;;;;;3.13;1.40;;;21.80;55.80;;;;;;5118678;27;20118;-53
2021/10/06 09:32:30;;;;;;;3.90;1.40;;;21.80;55.80;;;;;;5120695;27;20023;-58
2021/10/06 09:35:15;;;;;;;3.67;1.15;;;21.80;56.00;;;;;;5109760;27;20038;-53
2021/10/06 09:37:49;;;;;;;3.35;1.27;;;21.80;55.80;;;;;;5116429;27;20355;-55
2021/10/06 09:40:18;;;;;;;3.95;1.35;;;21.80;55.70;;;;;;5122353;27;20049;-54
2021/10/06 09:42:55;;;;;;;4.68;1.58;;;21.80;55.90;;;;;;5113221;28;20627;-55
2021/10/06 09:45:30;;;;;;;2.85;1.00;;;21.80;55.80;;;;;;5106521;27;20478;-53
2021/10/06 09:48:03;;;;;;;2.72;1.13;;;21.80;55.90;;;;;;5120651;28;20051;-57
2021/10/06 09:50:29;;;;;;;3.00;1.30;;;21.80;55.80;;;;;;5111108;28;20417;-58
2021/10/06 09:52:55;;;;;;;2.63;1.20;;;21.80;55.70;;;;;;5126428;28;20035;-59
2021/10/06 09:55:21;;;;;;;4.13;1.45;;;21.80;55.80;;;;;;5130023;28;20027;-60
2021/10/06 09:57:46;;;;;;;3.45;1.13;;;21.80;55.80;;;;;;5113216;28;20024;-56
2021/10/06 10:00:18;;;;;;;2.97;1.33;;;21.80;56.00;;;;;;5118871;28;20055;-60
2021/10/06 10:02:44;;;;;;;4.18;1.20;;;21.80;56.10;;;;;;5124247;28;20024;-52
2021/10/06 10:05:12;;;;;;;3.33;1.42;;;21.80;55.90;;;;;;5123245;28;20083;-53
2021/10/06 10:07:38;;;;;;;5.93;1.58;;;21.80;56.00;;;;;;5112958;28;20036;-50
2021/10/06 10:10:07;;;;;;;5.43;1.38;;;21.80;56.00;;;;;;5112560;28;20084;-58
2021/10/06 10:12:33;;;;;;;2.50;1.08;;;21.80;55.90;;;;;;5117447;28;20031;-57
2021/10/06 10:15:00;;;;;;;3.45;1.20;;;21.80;55.90;;;;;;5124866;28;20031;-54
2021/10/06 10:17:27;;;;;;;4.78;1.30;;;21.80;56.10;;;;;;5099223;28;20028;-56
2021/10/06 10:20:10;;;;;;;3.00;1.27;;;21.90;55.90;;;;;;5117112;28;20390;-55
2021/10/06 10:22:40;;;;;;;3.38;1.30;;;21.70;55.50;;;;;;5132866;28;20048;-57
2021/10/06 10:25:27;;;;;;;3.53;1.20;;;21.70;55.90;;;;;;5115050;28;20015;-56
2021/10/06 10:28:07;;;;;;;3.67;0.90;;;21.80;56.00;;;;;;5123183;28;20019;-56
2021/10/06 10:30:35;;;;;;;2.88;1.05;;;21.80;55.90;;;;;;5126341;28;20035;-53
2021/10/06 10:33:01;;;;;;;3.92;1.30;;;21.80;55.90;;;;;;5119091;28;20019;-56
2021/10/06 10:35:42;;;;;;;3.90;1.25;;;21.80;55.90;;;;;;5120813;28;20027;-59
2021/10/06 10:38:13;;;;;;;4.65;1.13;;;21.80;56.00;;;;;;5099510;28;20639;-54
2021/10/06 10:40:45;;;;;;;3.03;1.20;;;21.80;56.00;;;;;;5100685;28;20455;-54
2021/10/06 10:43:22;;;;;;;3.58;1.40;;;21.80;56.00;;;;;;5117775;28;20047;-55
2021/10/06 10:46:01;;;;;;;2.63;0.90;;;21.80;56.20;;;;;;5116422;27;20043;-57
2021/10/06 10:48:38;;;;;;;2.58;1.40;;;21.80;56.10;;;;;;5113244;27;20397;-56
2021/10/06 10:51:06;;;;;;;6.10;1.20;;;21.80;56.10;;;;;;5121661;27;20027;-55
2021/10/06 10:53:50;;;;;;;4.05;1.35;;;21.90;56.10;;;;;;5119457;27;20020;-52
2021/10/06 10:56:41;;;;;;;2.55;1.08;;;21.80;56.00;;;;;;5119575;27;20033;-54
2021/10/06 10:59:09;;;;;;;3.42;1.00;;;21.80;56.00;;;;;;5125946;27;20030;-57
2021/10/06 11:01:53;;;;;;;3.45;1.10;;;21.90;56.10;;;;;;5123960;27;20383;-53
2021/10/06 11:04:24;;;;;;;4.88;1.02;;;21.80;56.10;;;;;;5118880;27;20030;-58
2021/10/06 11:06:53;;;;;;;3.60;1.15;;;21.80;56.10;;;;;;5099254;27;20035;-54
2021/10/06 11:09:31;;;;;;;4.22;1.20;;;21.80;56.10;;;;;;5126303;27;20486;-55
2021/10/06 11:12:05;;;;;;;2.67;1.08;;;21.80;56.20;;;;;;5119720;27;20131;-50
2021/10/06 11:14:42;;;;;;;3.80;1.15;;;21.80;56.20;;;;;;5121079;27;20022;-55
2021/10/06 11:17:12;;;;;;;3.22;1.15;;;21.80;56.20;;;;;;5119585;27;20046;-56
2021/10/06 11:19:46;;;;;;;2.60;1.10;;;21.80;56.20;;;;;;5098113;28;20165;-50
2021/10/06 11:22:24;;;;;;;1.98;1.05;;;21.80;56.30;;;;;;5118348;27;20106;-53
2021/10/06 11:24:50;;;;;;;3.95;1.20;;;21.80;56.30;;;;;;5123482;27;21405;-55
2021/10/06 11:27:16;;;;;;;3.38;1.27;;;21.80;56.20;;;;;;5114135;27;20115;-55
2021/10/06 11:29:43;;;;;;;3.03;1.00;;;21.80;56.30;;;;;;5125471;27;20498;-54
2021/10/06 11:32:09;;;;;;;4.78;1.27;;;21.80;56.20;;;;;;5123840;27;20106;-51
2021/10/06 11:34:45;;;;;;;2.55;0.93;;;21.90;56.30;;;;;;5121854;27;20160;-54
2021/10/06 11:37:35;;;;;;;3.45;1.10;;;21.90;56.30;;;;;;5118421;27;20477;-59
2021/10/06 11:40:01;;;;;;;2.40;0.98;;;21.90;56.40;;;;;;5097839;28;20079;-55
2021/10/06 11:42:31;;;;;;;2.50;1.05;;;21.90;56.30;;;;;;5117173;27;20047;-55
2021/10/06 11:44:57;;;;;;;3.88;1.33;;;21.90;56.30;;;;;;5129502;27;20048;-55
2021/10/06 11:47:22;;;;;;;2.72;1.10;;;21.90;56.20;;;;;;5112447;27;20070;-54
2021/10/06 11:49:52;;;;;;;3.30;1.08;;;21.90;56.30;;;;;;5123808;27;20100;-55
2021/10/06 11:52:18;;;;;;;3.47;1.17;;;21.90;56.20;;;;;;5121995;27;20030;-55
2021/10/06 11:54:46;;;;;;;2.40;0.90;;;21.90;56.30;;;;;;5120246;27;20023;-58
2021/10/06 11:57:17;;;;;;;2.72;1.10;;;21.90;56.30;;;;;;5109734;27;20459;-55
2021/10/06 11:59:45;;;;;;;4.10;1.25;;;21.90;56.40;;;;;;5115901;27;20023;-55
2021/10/06 12:02:12;;;;;;;3.40;1.10;;;21.90;56.40;;;;;;5124880;27;20024;-56
2021/10/06 12:04:47;;;;;;;4.22;1.35;;;21.90;56.30;;;;;;5119391;27;20101;-51
2021/10/06 12:07:13;;;;;;;;;;;21.90;56.30;;;;;;5115627;27;20082;-58
2021/10/06 12:09:40;;;;;;;3.05;1.10;;;21.90;56.30;;;;;;5119630;27;19922;-56
2021/10/06 12:12:11;;;;;;;2.50;0.80;;;21.90;56.40;;;;;;5127563;27;20031;-56
2021/10/06 12:14:57;;;;;;;4.18;1.05;;;21.90;56.20;;;;;;5121085;27;20115;-55
2021/10/06 12:17:25;;;;;;;2.20;0.95;;;21.90;56.30;;;;;;5113458;27;20027;-55
2021/10/06 12:20:08;;;;;;;2.55;0.80;;;21.90;56.40;;;;;;5119913;27;20032;-56
2021/10/06 12:22:42;;;;;;;3.65;0.95;;;21.90;56.30;;;;;;5114779;27;20471;-58
2021/10/06 12:25:30;;;;;;;3.78;1.08;;;22.00;56.40;;;;;;5122262;27;20074;-56
2021/10/06 12:28:10;;;;;;;2.92;1.05;;;21.90;56.40;;;;;;5124941;27;20490;-57
2021/10/06 12:30:36;;;;;;;3.45;1.35;;;21.90;56.40;;;;;;5122990;27;20228;-55
2021/10/06 12:33:08;;;;;;;3.13;1.10;;;22.00;56.50;;;;;;5122116;27;20116;-57
2021/10/06 12:35:44;;;;;;;2.97;1.13;;;21.90;56.50;;;;;;5115595;27;20031;-58
2021/10/06 12:38:10;;;;;;;2.25;0.82;;;22.00;56.50;;;;;;5118251;27;20092;-57
2021/10/06 12:40:41;;;;;;;4.05;1.25;;;22.00;56.40;;;;;;5134533;27;20483;-53
2021/10/06 12:43:18;;;;;;;2.28;0.93;;;22.00;56.60;;;;;;5129383;27;20068;-55
2021/10/06 12:46:04;;;;;;;4.43;1.08;;;21.90;56.50;;;;;;5101467;27;20546;-53
2021/10/06 12:48:37;;;;;;;3.55;1.02;;;22.00;56.50;;;;;;5120535;27;20424;-56
2021/10/06 12:51:05;;;;;;;3.65;1.00;;;22.00;56.50;;;;;;5120938;27;20035;-56